Time;durP1;ratioP1;P1;durP2;ratioP2;P2;SDS_P1;SDS_P2;PMS_P1;PMS_P2;Temp;Humidity;BMP_temperature;BMP_pressure;BME280_temperature;BME280_humidity;BME280_pressure;Samples;Min_cycle;Max_cycle;Signal;HPM_P1;HPM_P2
2022/11/10 00:02:44;;;;;;;46.97;28.83;;;;;;;8.92;90.37;100626.05;1717206;82;21654;-81
2022/11/10 00:05:30;;;;;;;48.63;29.40;;;;;;;8.90;90.49;100614.80;1717341;82;21022;-81
2022/11/10 00:08:15;;;;;;;45.37;27.83;;;;;;;8.93;90.71;100614.71;1717219;82;21043;-80
2022/11/10 00:11:08;;;;;;;50.27;28.33;;;;;;;8.93;90.77;100619.94;1717383;82;21030;-81
2022/11/10 00:17:00;;;;;;;44.63;27.00;;;;;;;9.00;91.20;100621.47;1717230;82;21050;-82
2022/11/10 00:19:45;;;;;;;46.60;27.60;;;;;;;9.04;91.20;100629.66;1717287;82;21036;-80
2022/11/10 00:22:32;;;;;;;42.73;26.93;;;;;;;9.07;91.34;100636.11;1717473;82;21019;-81
2022/11/10 00:25:18;;;;;;;43.23;26.00;;;;;;;9.10;91.56;100627.33;1717829;82;21884;-81
2022/11/10 00:28:03;;;;;;;39.13;25.40;;;;;;;9.12;91.61;100638.16;1717645;82;21403;-80
2022/11/10 00:30:49;;;;;;;45.33;26.43;;;;;;;9.13;91.61;100639.86;1717484;82;21516;-80
2022/11/10 00:33:37;;;;;;;45.50;26.07;;;;;;;9.15;91.46;100638.53;1717525;82;21023;-81
2022/11/10 00:36:24;;;;;;;;;;;;;;;9.15;91.63;100641.99;1720109;82;21019;-82
2022/11/10 00:39:11;;;;;;;43.53;25.93;;;;;;;9.19;91.97;100644.52;1717617;82;20607;-81
2022/11/10 00:41:57;;;;;;;44.10;25.83;;;;;;;9.19;91.82;100645.38;1717582;82;21141;-81
2022/11/10 00:44:42;;;;;;;45.40;26.43;;;;;;;9.20;92.12;100644.49;1717464;82;21023;-81
2022/11/10 00:47:28;;;;;;;45.07;27.67;;;;;;;9.22;92.14;100640.52;1717584;82;21023;-82
2022/11/10 00:50:14;;;;;;;42.10;26.40;;;;;;;9.23;92.00;100648.75;1717527;82;21065;-81
2022/11/10 00:52:59;;;;;;;40.23;24.83;;;;;;;9.21;92.09;100641.42;1717600;82;21515;-81
2022/11/10 00:55:44;;;;;;;41.47;25.30;;;;;;;9.21;92.08;100645.34;1717528;82;21199;-81
2022/11/10 00:58:30;;;;;;;37.63;24.10;;;;;;;9.21;92.31;100637.50;1717721;82;21086;-81
2022/11/10 01:01:18;;;;;;;39.53;24.50;;;;;;;9.23;92.48;100639.17;1717563;82;21526;-81
2022/11/10 01:04:04;;;;;;;39.17;25.23;;;;;;;9.25;92.56;100638.66;1717624;82;21043;-81
2022/11/10 01:06:50;;;;;;;37.53;23.33;;;;;;;9.26;92.74;100641.70;1717610;82;21547;-81
2022/11/10 01:09:36;;;;;;;37.27;23.20;;;;;;;9.26;92.73;100639.55;1717723;82;22235;-81
2022/11/10 01:12:21;;;;;;;39.43;24.43;;;;;;;9.29;93.15;100640.30;1717474;82;21091;-81
2022/11/10 01:15:08;;;;;;;39.27;23.47;;;;;;;9.31;92.89;100646.36;1717569;82;21011;-82
2022/11/10 01:17:55;;;;;;;40.10;24.37;;;;;;;9.32;92.97;100647.21;1717540;82;21063;-81
2022/11/10 01:20:41;;;;;;;37.87;23.97;;;;;;;9.31;92.92;100651.59;1717539;82;21019;-81
2022/11/10 01:23:27;;;;;;;37.33;23.33;;;;;;;9.30;92.93;100654.23;1717624;82;21162;-80
2022/11/10 01:26:13;;;;;;;36.80;24.03;;;;;;;9.29;92.98;100653.84;1717442;82;21448;-81
2022/11/10 01:28:59;;;;;;;39.77;24.60;;;;;;;9.28;93.16;100656.03;1695455;83;21035;-81
2022/11/10 01:31:44;;;;;;;38.63;22.20;;;;;;;9.29;93.29;100655.15;1692308;83;21030;-81
2022/11/10 01:34:29;;;;;;;38.33;24.10;;;;;;;9.29;93.22;100663.00;1694380;83;21042;-81
2022/11/10 01:37:15;;;;;;;38.13;22.17;;;;;;;9.26;93.34;100665.23;1691888;83;21152;-81
2022/11/10 01:40:01;;;;;;;37.97;21.70;;;;;;;9.27;93.46;100668.70;1694361;83;21018;-81
2022/11/10 01:42:53;;;;;;;39.73;24.27;;;;;;;9.26;93.65;100663.94;1699670;83;21453;-81
2022/11/10 01:45:52;;;;;;;41.50;23.80;;;;;;;9.27;93.75;100664.33;1692448;83;21508;-81
2022/11/10 01:48:55;;;;;;;37.97;23.40;;;;;;;9.27;93.90;100662.17;1686197;83;21026;-81
2022/11/10 01:52:03;;;;;;;37.93;22.20;;;;;;;9.27;94.04;100658.25;1699692;83;21156;-81
2022/11/10 01:54:49;;;;;;;39.17;24.10;;;;;;;9.26;94.13;100660.47;1699614;83;21093;-81
2022/11/10 01:57:36;;;;;;;36.80;22.57;;;;;;;9.28;94.27;100656.88;1699791;83;21010;-81
2022/11/10 02:00:23;;;;;;;38.90;22.90;;;;;;;9.28;94.35;100659.50;1699795;83;20987;-81
2022/11/10 02:03:50;;;;;;;35.07;22.97;;;;;;;9.30;94.41;100666.86;1690921;83;21062;-81
2022/11/10 02:06:38;;;;;;;40.30;23.77;;;;;;;9.31;94.42;100671.21;1699689;83;22008;-81
2022/11/10 02:09:24;;;;;;;35.67;22.20;;;;;;;9.34;94.75;100669.81;1699626;83;21473;-82
2022/11/10 02:12:11;;;;;;;37.43;23.23;;;;;;;9.36;94.77;100669.30;1699910;83;21034;-82
2022/11/10 02:14:56;;;;;;;34.73;22.33;;;;;;;9.39;94.82;100676.20;1699707;83;21435;-81
2022/11/10 02:17:45;;;;;;;36.53;22.20;;;;;;;9.41;94.95;100672.25;1699817;83;21022;-82
2022/11/10 02:20:30;;;;;;;36.60;22.37;;;;;;;9.45;95.00;100673.87;1699868;83;21149;-81
2022/11/10 02:23:36;;;;;;;36.80;22.63;;;;;;;9.47;95.13;100670.31;1706228;83;21465;-82
2022/11/10 02:26:27;;;;;;;34.27;21.43;;;;;;;9.50;95.00;100671.98;1677425;85;21039;-82
2022/11/10 02:29:12;;;;;;;;;;;;;;;9.51;95.06;100675.03;1679940;85;21035;-82
2022/11/10 02:31:58;;;;;;;34.50;20.37;;;;;;;9.50;95.17;100680.69;1677296;85;20682;-82
2022/11/10 02:34:44;;;;;;;32.47;19.77;;;;;;;9.50;94.96;100681.14;1677437;85;21439;-82
2022/11/10 02:37:29;;;;;;;33.67;20.33;;;;;;;9.50;95.22;100682.00;1657116;85;21026;-81
2022/11/10 02:40:15;;;;;;;30.70;19.83;;;;;;;9.52;95.15;100692.44;1677398;85;21030;-80
2022/11/10 02:43:05;;;;;;;30.93;19.93;;;;;;;9.53;95.52;100690.21;1677349;85;21473;-81
2022/11/10 02:45:51;;;;;;;33.73;20.23;;;;;;;9.59;95.64;100696.61;1677398;85;21011;-81
2022/11/10 02:48:36;;;;;;;31.27;21.20;;;;;;;9.61;95.83;100698.25;1677321;85;21339;-81
2022/11/10 02:51:22;;;;;;;28.87;19.87;;;;;;;9.64;95.61;100696.00;1677297;85;21027;-81
2022/11/10 02:54:07;;;;;;;26.60;17.50;;;;;;;9.67;95.68;100701.60;1677399;85;21544;-81
2022/11/10 02:56:52;;;;;;;28.93;17.80;;;;;;;9.66;95.51;100699.89;1677650;85;21000;-80
2022/11/10 02:59:37;;;;;;;28.47;18.43;;;;;;;9.66;95.69;100700.75;1677449;85;21035;-81
2022/11/10 03:02:23;;;;;;;30.07;18.70;;;;;;;9.71;95.87;100703.25;1677443;85;21216;-81
2022/11/10 03:05:08;;;;;;;28.77;19.00;;;;;;;9.71;95.85;100710.64;1677267;85;20998;-80
2022/11/10 03:08:00;;;;;;;31.00;18.77;;;;;;;9.72;95.65;100712.34;1677497;85;21036;-81
2022/11/10 03:10:45;;;;;;;26.03;17.17;;;;;;;9.75;96.12;100709.64;1677490;85;21452;-81
2022/11/10 03:13:30;;;;;;;29.73;17.40;;;;;;;9.78;96.13;100712.62;1677499;85;21347;-81
2022/11/10 03:16:16;;;;;;;29.27;17.60;;;;;;;9.80;95.98;100723.45;1677577;85;21501;-81
2022/11/10 03:19:02;;;;;;;25.70;16.90;;;;;;;9.80;95.88;100724.77;1677428;85;21442;-81
2022/11/10 03:21:48;;;;;;;28.67;17.90;;;;;;;9.80;95.72;100730.45;1676471;85;21068;-81
2022/11/10 03:24:37;;;;;;;27.23;18.20;;;;;;;9.77;95.57;100733.17;1680423;85;21027;-81
2022/11/10 03:27:22;;;;;;;26.33;17.03;;;;;;;9.75;95.52;100733.66;1680374;85;21015;-81
2022/11/10 03:30:08;;;;;;;25.33;16.73;;;;;;;9.73;95.67;100739.41;1680513;85;21173;-81
2022/11/10 03:32:54;;;;;;;24.07;15.90;;;;;;;9.72;95.81;100741.14;1680234;85;21493;-81
2022/11/10 03:35:39;;;;;;;22.90;16.00;;;;;;;9.72;95.85;100746.83;1677674;85;21478;-82
2022/11/10 03:38:25;;;;;;;26.10;16.07;;;;;;;9.70;95.77;100747.31;1686507;84;20893;-81
2022/11/10 03:41:11;;;;;;;24.07;15.63;;;;;;;9.70;95.91;100742.97;1697713;84;21008;-81
2022/11/10 03:43:56;;;;;;;24.10;16.23;;;;;;;9.70;95.92;100751.24;1697680;84;22151;-81
2022/11/10 03:46:41;;;;;;;23.63;15.33;;;;;;;9.71;96.06;100751.21;1697778;84;21000;-81
2022/11/10 03:49:27;;;;;;;22.47;14.87;;;;;;;9.72;96.02;100745.52;1697777;84;21450;-82
2022/11/10 03:52:12;;;;;;;20.50;13.60;;;;;;;9.71;95.77;100754.28;1697765;84;21498;-81
2022/11/10 03:54:58;;;;;;;19.60;12.67;;;;;;;9.69;95.70;100758.70;1697863;84;21535;-81
2022/11/10 03:57:43;;;;;;;18.47;11.77;;;;;;;9.64;95.73;100752.27;1697734;84;21145;-81
2022/11/10 04:00:28;;;;;;;18.20;12.47;;;;;;;9.64;95.88;100750.96;1697749;84;20996;-81
2022/11/10 04:03:14;;;;;;;16.53;10.40;;;;;;;9.64;95.82;100752.72;1697952;84;20980;-81
2022/11/10 04:09:05;;;;;;;14.77;10.50;;;;;;;9.63;96.00;100755.80;1698053;84;20993;-81
2022/11/10 04:15:54;;;;;;;18.27;10.03;;;;;;;9.64;96.08;100763.20;1697905;84;20997;-81
2022/11/10 04:17:50;;;;;;;11.60;8.03;;;;;;;9.65;96.20;100772.33;1687054;84;20969;-82
2022/11/10 04:20:36;;;;;;;10.60;7.37;;;;;;;9.68;96.40;100764.84;1680682;85;21026;-82
2022/11/10 04:23:26;;;;;;;14.90;7.27;;;;;;;9.71;96.39;100781.77;1671803;84;21467;-81
2022/11/10 04:26:29;;;;;;;9.93;6.75;;;;;;;9.75;96.58;100793.41;1666397;85;21770;-81
2022/11/10 04:29:17;;;;;;;12.73;6.83;;;;;;;9.81;96.59;100796.33;1666118;85;21079;-82
2022/11/10 04:32:03;;;;;;;9.17;6.37;;;;;;;9.85;96.59;100784.86;1666165;85;21023;-82
2022/11/10 04:34:48;;;;;;;10.83;6.13;;;;;;;9.88;96.47;100793.08;1666248;85;21039;-82
2022/11/10 04:37:34;;;;;;;8.90;5.80;;;;;;;9.90;96.44;100794.77;1649654;85;21091;-82
2022/11/10 04:40:19;;;;;;;9.20;5.70;;;;;;;9.94;96.42;100795.52;1666385;85;21125;-81
2022/11/10 04:43:05;;;;;;;10.10;6.20;;;;;;;9.98;96.46;100797.17;1666143;85;21584;-81
2022/11/10 04:45:50;;;;;;;9.57;5.63;;;;;;;10.02;96.26;100800.95;1666242;85;21063;-81
2022/11/10 04:48:35;;;;;;;10.27;5.90;;;;;;;10.07;96.33;100809.14;1666230;85;21046;-81
2022/11/10 04:51:27;;;;;;;9.60;5.77;;;;;;;10.10;96.27;100806.44;1666091;85;21042;-82
2022/11/10 04:54:13;;;;;;;8.63;5.33;;;;;;;10.14;96.13;100817.21;1666368;85;21156;-81
2022/11/10 04:56:59;;;;;;;10.17;5.87;;;;;;;10.17;96.07;100821.05;1666166;85;21042;-81
2022/11/10 04:59:44;;;;;;;9.63;5.63;;;;;;;10.15;95.88;100819.80;1666210;85;21126;-81
2022/11/10 05:02:30;;;;;;;8.03;5.28;;;;;;;10.18;95.80;100828.88;1666135;85;21067;-81
2022/11/10 05:05:15;;;;;;;8.27;5.37;;;;;;;10.21;95.75;100827.94;1666234;85;21055;-82
2022/11/10 05:08:01;;;;;;;7.97;5.30;;;;;;;10.23;95.63;100827.45;1666158;85;21143;-79
2022/11/10 05:10:46;;;;;;;9.28;5.35;;;;;;;10.22;95.54;100830.95;1666071;85;21042;-81
2022/11/10 05:13:32;;;;;;;8.23;5.03;;;;;;;10.23;95.58;100830.92;1666274;85;21019;-81
2022/11/10 05:16:18;;;;;;;6.75;5.00;;;;;;;10.23;95.43;100836.63;1666277;85;21559;-81
2022/11/10 05:19:03;;;;;;;7.47;5.00;;;;;;;10.24;95.42;100842.26;1666217;85;21097;-81
2022/11/10 05:21:49;;;;;;;9.88;4.83;;;;;;;10.24;95.33;100843.11;1666193;85;21105;-81
2022/11/10 05:24:34;;;;;;;8.77;4.70;;;;;;;10.25;95.17;100848.77;1676468;84;21068;-80
2022/11/10 05:27:20;;;;;;;8.17;5.00;;;;;;;10.24;95.11;100851.42;1699539;83;21051;-81
2022/11/10 05:30:07;;;;;;;7.77;4.60;;;;;;;10.22;94.96;100855.84;1669878;85;20947;-81
2022/11/10 05:32:52;;;;;;;9.00;4.45;;;;;;;10.21;94.96;100851.52;1699485;84;21000;-81
2022/11/10 05:35:39;;;;;;;6.85;4.95;;;;;;;10.19;94.91;100854.63;1667867;85;21062;-81
2022/11/10 05:38:24;;;;;;;6.10;4.08;;;;;;;10.16;94.87;100861.26;1693629;83;21043;-80
2022/11/10 05:41:11;;;;;;;8.80;4.70;;;;;;;10.16;94.82;100865.19;1670040;85;21036;-81
2022/11/10 05:43:56;;;;;;;8.37;4.47;;;;;;;10.13;94.76;100870.52;1699480;84;21530;-81
2022/11/10 05:46:52;;;;;;;6.83;4.30;;;;;;;10.12;94.75;100876.66;1669781;85;20987;-81
2022/11/10 05:49:37;;;;;;;9.00;4.40;;;;;;;10.10;94.73;100875.84;1699511;84;21171;-81
2022/11/10 05:52:22;;;;;;;7.97;4.13;;;;;;;10.12;94.79;100885.83;1669750;85;21000;-81
2022/11/10 05:55:08;;;;;;;8.40;4.17;;;;;;;10.12;94.68;100895.86;1699534;84;20867;-82
2022/11/10 05:57:56;;;;;;;7.00;4.00;;;;;;;10.11;94.58;100898.50;1669823;85;21046;-81
2022/11/10 06:00:41;;;;;;;9.07;3.50;;;;;;;10.08;94.49;100903.38;1699517;84;21008;-81
2022/11/10 06:03:26;;;;;;;6.50;3.77;;;;;;;10.07;94.42;100910.83;1669859;85;21117;-81
2022/11/10 06:06:12;;;;;;;8.40;4.10;;;;;;;10.04;94.36;100917.01;1699420;84;20981;-81
2022/11/10 06:08:58;;;;;;;7.43;4.03;;;;;;;10.03;94.37;100923.58;1669881;85;21047;-81
2022/11/10 06:11:43;;;;;;;7.43;4.23;;;;;;;10.02;94.26;100933.66;1699431;84;20996;-81
2022/11/10 06:14:29;;;;;;;6.90;4.50;;;;;;;9.99;94.24;100935.91;1675575;84;21020;-79
2022/11/10 06:17:15;;;;;;;6.90;3.70;;;;;;;9.97;94.13;100940.31;1724424;83;21962;-79
2022/11/10 06:20:00;;;;;;;6.77;3.87;;;;;;;9.94;94.16;100949.56;1693387;84;21490;-77
2022/11/10 06:23:02;;;;;;;7.40;4.03;;;;;;;9.94;94.27;100948.25;1723785;82;21009;-81
2022/11/10 06:25:47;;;;;;;7.83;4.20;;;;;;;9.93;94.22;100950.47;1697264;84;21094;-82
2022/11/10 06:28:33;;;;;;;6.53;3.47;;;;;;;9.91;94.15;100952.27;1697170;84;21157;-80
2022/11/10 06:31:20;;;;;;;6.13;3.90;;;;;;;9.90;94.14;100958.41;1691281;84;21162;-78
2022/11/10 06:34:05;;;;;;;7.10;3.90;;;;;;;9.87;94.10;100972.89;1695806;84;21046;-77
2022/11/10 06:36:51;;;;;;;8.27;4.20;;;;;;;9.86;94.09;100968.53;1685186;84;21102;-78
2022/11/10 06:39:36;;;;;;;11.80;4.17;;;;;;;9.85;94.14;100978.61;1706024;83;21054;-79
2022/11/10 06:42:21;;;;;;;4.80;3.57;;;;;;;9.85;94.10;100987.77;1684726;84;21064;-80
2022/11/10 06:45:08;;;;;;;8.50;3.60;;;;;;;9.87;94.20;100983.82;1702787;83;21328;-79
2022/11/10 06:48:05;;;;;;;6.20;3.50;;;;;;;9.85;94.10;100995.63;1700397;83;21038;-79
2022/11/10 06:50:51;;;;;;;8.10;4.30;;;;;;;9.86;94.04;101001.27;1700165;83;20962;-78
2022/11/10 06:53:37;;;;;;;8.10;3.53;;;;;;;9.86;94.02;101011.73;1700556;83;22152;-78
2022/11/10 06:56:22;;;;;;;9.73;3.60;;;;;;;9.87;94.08;101019.17;1700767;83;21395;-78
2022/11/10 06:59:08;;;;;;;8.23;3.50;;;;;;;9.91;94.08;101023.42;1700826;83;21321;-78
2022/11/10 07:01:53;;;;;;;7.78;3.35;;;;;;;9.94;94.05;101028.58;1700543;83;21006;-78
2022/11/10 07:04:38;;;;;;;6.67;2.77;;;;;;;9.96;93.98;101032.03;1707230;83;21506;-79
2022/11/10 07:07:24;;;;;;;9.10;3.30;;;;;;;9.95;93.79;101032.91;1694624;84;21030;-81
2022/11/10 07:10:09;;;;;;;7.43;3.37;;;;;;;9.95;93.78;101042.07;1694048;84;21146;-77
2022/11/10 07:12:57;;;;;;;8.00;3.77;;;;;;;9.95;93.71;101041.65;1690134;84;21174;-81
2022/11/10 07:15:42;;;;;;;8.48;2.75;;;;;;;9.97;93.75;101054.69;1713746;83;21017;-77
2022/11/10 07:18:27;;;;;;;8.60;3.60;;;;;;;9.99;93.75;101049.83;1692557;84;21046;-77
2022/11/10 07:21:13;;;;;;;12.55;3.70;;;;;;;10.05;93.78;101061.45;1693072;84;21057;-79
2022/11/10 07:23:58;;;;;;;10.30;3.43;;;;;;;10.10;93.62;101060.50;1694604;83;21122;-80
2022/11/10 07:26:44;;;;;;;6.97;3.20;;;;;;;10.14;93.51;101070.87;1721863;82;21449;-80
2022/11/10 07:29:29;;;;;;;7.87;2.70;;;;;;;10.22;93.56;101071.97;1720551;82;21566;-80
2022/11/10 07:32:15;;;;;;;7.73;3.10;;;;;;;10.30;93.49;101075.75;1688593;84;21019;-82
2022/11/10 07:35:00;;;;;;;6.65;2.70;;;;;;;10.36;93.28;101079.52;1720552;82;21028;-81
2022/11/10 07:37:46;;;;;;;5.05;2.67;;;;;;;10.40;93.08;101079.42;1687267;84;21368;-80
2022/11/10 07:40:32;;;;;;;7.80;2.80;;;;;;;10.42;92.87;101077.63;1718926;82;21167;-79
2022/11/10 07:43:17;;;;;;;6.90;3.20;;;;;;;10.42;92.66;101090.73;1687081;84;21088;-79
2022/11/10 07:46:03;;;;;;;5.62;2.20;;;;;;;10.44;92.59;101091.98;1717262;82;21030;-78
2022/11/10 07:48:48;;;;;;;5.08;2.42;;;;;;;10.46;92.53;101100.22;1679934;84;21038;-79
2022/11/10 07:51:33;;;;;;;6.42;2.83;;;;;;;10.48;92.46;101103.67;1715245;82;21046;-78
2022/11/10 07:54:18;;;;;;;5.15;2.67;;;;;;;10.52;92.41;101107.52;1702720;82;21131;-78
2022/11/10 07:57:04;;;;;;;7.75;2.47;;;;;;;10.55;92.35;101112.69;1702448;83;21085;-78
2022/11/10 07:59:50;;;;;;;5.92;2.40;;;;;;;10.57;92.32;101110.44;1702602;83;21037;-77
2022/11/10 08:02:35;;;;;;;6.87;2.93;;;;;;;10.59;92.15;101118.27;1702526;83;21463;-76
2022/11/10 08:05:20;;;;;;;5.10;2.50;;;;;;;10.61;92.17;101124.31;1702519;83;21546;-80
2022/11/10 08:08:06;;;;;;;4.57;2.50;;;;;;;10.65;92.10;101122.05;1702538;83;21057;-75
2022/11/10 08:10:52;;;;;;;6.60;2.37;;;;;;;10.68;92.03;101123.27;1702543;83;21081;-77
2022/11/10 08:13:39;;;;;;;4.17;2.10;;;;;;;10.72;91.98;101138.01;1702527;83;21033;-80
2022/11/10 08:16:24;;;;;;;5.78;2.30;;;;;;;10.81;92.06;101144.34;1711249;82;21037;-77
2022/11/10 08:19:09;;;;;;;4.95;2.60;;;;;;;10.89;92.03;101145.01;1720199;82;21331;-76
2022/11/10 08:21:55;;;;;;;6.72;2.17;;;;;;;10.94;91.68;101152.73;1713471;82;21915;-79
2022/11/10 08:24:42;;;;;;;6.92;2.55;;;;;;;10.99;91.58;101156.56;1702523;82;21045;-76
2022/11/10 08:27:27;;;;;;;7.20;2.58;;;;;;;11.07;91.50;101160.69;1702515;82;21026;-76
2022/11/10 08:30:14;;;;;;;6.70;2.58;;;;;;;11.20;91.49;101158.61;1715606;82;20935;-77
2022/11/10 08:33:01;;;;;;;4.90;2.00;;;;;;;11.31;91.49;101164.88;1702457;83;21053;-77
2022/11/10 08:35:49;;;;;;;3.52;2.15;;;;;;;11.41;91.31;101174.65;1702429;83;21920;-78
2022/11/10 08:38:35;;;;;;;5.97;2.33;;;;;;;11.56;91.04;101179.48;1723893;83;21010;-79
2022/11/10 08:41:20;;;;;;;7.12;2.02;;;;;;;11.75;91.01;101191.59;1693758;84;20996;-80
2022/11/10 08:44:09;;;;;;;4.42;1.50;;;;;;;11.94;90.82;101204.62;1723884;83;21071;-80
2022/11/10 08:46:54;;;;;;;5.20;1.70;;;;;;;12.07;90.58;101196.39;1694062;84;21350;-79
2022/11/10 08:49:39;;;;;;;6.20;2.25;;;;;;;12.13;89.93;101202.31;1723745;83;21506;-80
2022/11/10 08:52:25;;;;;;;6.42;2.10;;;;;;;12.13;89.37;101208.88;1693620;84;21012;-78
2022/11/10 08:55:10;;;;;;;4.85;1.87;;;;;;;12.13;89.17;101206.25;1723819;83;21009;-79
2022/11/10 08:58:00;;;;;;;3.72;1.62;;;;;;;12.11;88.72;101217.29;1693706;84;21090;-80
2022/11/10 09:00:46;;;;;;;;;;;;;;;12.08;88.55;101221.30;1726711;83;21008;-79
2022/11/10 09:03:31;;;;;;;4.08;1.87;;;;;;;12.12;88.42;101227.34;1723500;83;21442;-81
2022/11/10 09:06:16;;;;;;;5.53;2.00;;;;;;;12.11;88.30;101237.00;1689047;84;21023;-78
2022/11/10 09:09:01;;;;;;;5.83;1.90;;;;;;;12.18;88.43;101235.89;1724258;83;21001;-77
2022/11/10 09:11:47;;;;;;;4.42;1.72;;;;;;;12.32;88.14;101247.30;1693336;84;21080;-77
2022/11/10 09:14:32;;;;;;;5.30;1.70;;;;;;;12.38;87.86;101239.67;1724151;83;21426;-77
2022/11/10 09:17:17;;;;;;;4.17;1.60;;;;;;;12.47;87.69;101245.95;1681413;84;21172;-77
2022/11/10 09:20:04;;;;;;;9.10;1.62;;;;;;;12.52;87.52;101261.13;1724120;83;21072;-77
2022/11/10 09:22:50;;;;;;;5.50;1.82;;;;;;;12.64;87.53;101257.28;1688402;84;21023;-78
2022/11/10 09:25:37;;;;;;;6.85;2.12;;;;;;;12.76;87.34;101267.85;1724419;83;21406;-77
2022/11/10 09:28:23;;;;;;;5.70;1.90;;;;;;;12.85;87.16;101267.55;1693036;84;21708;-78
2022/11/10 09:31:08;;;;;;;6.10;1.80;;;;;;;12.93;87.06;101280.84;1724328;83;21967;-77
2022/11/10 09:33:53;;;;;;;6.25;1.50;;;;;;;13.00;86.93;101275.38;1693351;84;21510;-79
2022/11/10 09:36:39;;;;;;;4.53;1.70;;;;;;;13.06;86.48;101285.73;1712739;83;21025;-77
2022/11/10 09:39:24;;;;;;;4.50;1.90;;;;;;;13.05;85.91;101284.87;1722864;83;21740;-78
2022/11/10 09:42:38;;;;;;;4.45;1.65;;;;;;;13.27;85.96;101292.06;1693460;84;21032;-77
2022/11/10 09:45:35;;;;;;;7.10;1.80;;;;;;;13.69;85.85;101282.25;1719293;83;21514;-77
2022/11/10 09:48:30;;;;;;;7.58;1.90;;;;;;;14.08;85.68;101290.50;1691362;84;21035;-78
2022/11/10 09:51:25;;;;;;;8.63;2.60;;;;;;;14.15;84.23;101284.53;1717160;83;21033;-77
2022/11/10 09:54:38;;;;;;;6.47;1.85;;;;;;;14.11;83.60;101286.42;1688639;84;21043;-76
2022/11/10 09:57:26;;;;;;;6.58;2.10;;;;;;;14.04;83.20;101292.83;1722062;82;21053;-76
2022/11/10 10:00:15;;;;;;;3.42;1.25;;;;;;;13.84;82.48;101302.80;1690169;84;21654;-78
2022/11/10 10:03:04;;;;;;;5.85;1.60;;;;;;;13.60;82.22;101288.25;1719144;82;21038;-77
2022/11/10 10:06:09;;;;;;;4.10;1.27;;;;;;;13.50;82.40;101291.29;1679007;84;21042;-76
2022/11/10 10:09:03;;;;;;;6.80;2.05;;;;;;;13.42;82.32;101293.33;1716351;82;21018;-76
2022/11/10 10:12:00;;;;;;;6.62;1.82;;;;;;;13.46;82.75;101297.09;1690608;84;21711;-77
2022/11/10 10:15:19;;;;;;;5.83;1.60;;;;;;;13.52;82.65;101295.59;1678176;84;21177;-76
2022/11/10 10:18:27;;;;;;;3.67;1.40;;;;;;;13.57;82.57;101300.22;1726582;82;21023;-76
2022/11/10 10:21:56;;;;;;;4.47;1.60;;;;;;;13.44;81.90;101298.06;1718816;82;21000;-77
2022/11/10 10:24:41;;;;;;;8.33;1.40;;;;;;;13.32;81.92;101301.98;1699372;83;21497;-76
2022/11/10 10:27:28;;;;;;;7.05;1.45;;;;;;;13.21;81.93;101299.67;1723185;82;21266;-76
2022/11/10 10:30:18;;;;;;;5.10;1.52;;;;;;;13.13;81.81;101302.55;1704170;83;22312;-76
2022/11/10 10:33:20;;;;;;;6.03;1.57;;;;;;;12.99;81.64;101297.36;1718560;82;28672;-76
2022/11/10 10:36:11;;;;;;;6.20;1.72;;;;;;;12.91;81.62;101300.23;1704344;82;21129;-76
2022/11/10 10:39:11;;;;;;;6.30;1.50;;;;;;;12.84;81.77;101298.27;1700577;82;20997;-77
2022/11/10 10:41:57;;;;;;;5.37;1.55;;;;;;;12.82;81.65;101309.74;1717598;82;21880;-77
2022/11/10 10:45:04;;;;;;;5.22;1.75;;;;;;;13.18;81.92;101306.36;1707389;83;21214;-77
2022/11/10 10:47:56;;;;;;;6.95;1.52;;;;;;;13.34;81.78;101310.70;1705367;82;20998;-78
2022/11/10 10:50:42;;;;;;;5.75;1.57;;;;;;;13.59;81.27;101301.49;1708111;82;21042;-78
2022/11/10 10:53:28;;;;;;;6.08;1.92;;;;;;;13.84;81.03;101300.16;1648762;84;21007;-77
2022/11/10 10:56:20;;;;;;;5.53;1.57;;;;;;;14.06;80.78;101303.72;1724934;82;21040;-77
2022/11/10 10:59:11;;;;;;;8.53;1.70;;;;;;;14.33;80.25;101290.86;1703918;83;21166;-79
2022/11/10 11:01:57;;;;;;;4.03;1.47;;;;;;;14.72;80.05;101306.97;1704326;83;20994;-78
2022/11/10 11:04:42;;;;;;;3.35;1.40;;;;;;;14.65;79.19;101306.80;1704100;83;21026;-79
2022/11/10 11:07:28;;;;;;;4.37;1.80;;;;;;;14.60;79.13;101305.65;1728923;82;21299;-83
2022/11/10 11:10:24;;;;;;;8.93;2.33;;;;;;;15.31;78.95;101309.39;1725619;82;21011;-80
2022/11/10 11:13:24;;;;;;;6.00;1.98;;;;;;;16.12;78.42;101301.87;1699715;83;21928;-80
2022/11/10 11:16:11;;;;;;;5.58;1.47;;;;;;;16.86;76.89;101305.05;1721110;82;21036;-79
2022/11/10 11:18:58;;;;;;;8.28;1.80;;;;;;;16.70;75.55;101302.25;1717533;82;21471;-81
2022/11/10 11:22:36;;;;;;;6.15;2.35;;;;;;;16.56;74.77;101300.27;1703160;82;21053;-81
2022/11/10 11:25:29;;;;;;;4.25;1.42;;;;;;;16.26;74.78;101305.20;1698902;83;21018;-78
2022/11/10 11:28:32;;;;;;;6.15;2.25;;;;;;;16.63;74.62;101318.05;1693228;83;21316;-80
2022/11/10 11:31:28;;;;;;;6.17;2.00;;;;;;;16.78;74.66;101318.66;1688807;83;21014;-79
2022/11/10 11:34:32;;;;;;;8.08;1.67;;;;;;;17.30;74.37;101312.11;1685805;83;21073;-79
2022/11/10 11:38:04;;;;;;;6.55;1.65;;;;;;;17.67;74.31;101318.16;1674440;84;21026;-80
2022/11/10 11:41:01;;;;;;;8.10;2.12;;;;;;;17.84;73.67;101324.79;1704871;83;22408;-80
2022/11/10 11:44:26;;;;;;;4.97;1.70;;;;;;;18.05;73.28;101320.16;1693348;84;21134;-80
2022/11/10 11:47:39;;;;;;;5.37;1.75;;;;;;;18.28;72.67;101316.24;1705636;83;21015;-79
2022/11/10 11:50:53;;;;;;;7.87;1.70;;;;;;;18.40;71.45;101317.39;1693198;83;21075;-80
2022/11/10 11:54:12;;;;;;;5.22;1.50;;;;;;;18.12;70.18;101319.81;1674257;84;21061;-80
2022/11/10 11:57:09;;;;;;;5.42;1.22;;;;;;;18.00;69.53;101322.66;1673694;84;21050;-79
2022/11/10 12:00:16;;;;;;;3.85;1.45;;;;;;;17.76;68.54;101324.78;1673825;84;21303;-79
2022/11/10 12:03:42;;;;;;;4.80;1.40;;;;;;;17.96;69.03;101341.87;1673878;84;21061;-79
2022/11/10 12:06:35;;;;;;;5.08;1.20;;;;;;;18.17;68.69;101337.20;1674298;84;21057;-79
2022/11/10 12:09:46;;;;;;;2.77;1.07;;;;;;;18.19;67.60;101343.29;1643921;84;21444;-79
2022/11/10 12:12:45;;;;;;;3.72;1.00;;;;;;;18.10;67.37;101345.59;1674259;84;21061;-79
2022/11/10 12:15:56;;;;;;;7.72;1.85;;;;;;;17.60;66.99;101348.13;1674504;84;22219;-79
2022/11/10 12:19:31;;;;;;;6.03;1.42;;;;;;;17.15;66.72;101347.30;1674364;84;21432;-79
2022/11/10 12:22:34;;;;;;;4.28;1.02;;;;;;;16.79;67.14;101351.28;1673848;84;21045;-79
2022/11/10 12:25:48;;;;;;;4.62;1.15;;;;;;;16.36;66.94;101355.92;1685331;82;21535;-79
2022/11/10 12:28:51;;;;;;;5.67;1.30;;;;;;;15.88;67.07;101359.37;1669033;85;21543;-79
2022/11/10 12:31:38;;;;;;;6.67;1.52;;;;;;;15.54;67.32;101358.13;1658697;85;21169;-79
2022/11/10 12:34:43;;;;;;;7.30;1.25;;;;;;;15.53;68.24;101363.03;1669089;85;21082;-79
2022/11/10 12:37:36;;;;;;;4.72;1.55;;;;;;;15.61;67.97;101353.47;1670936;85;21094;-78
2022/11/10 12:40:33;;;;;;;6.12;1.75;;;;;;;15.77;67.99;101357.20;1665545;85;21552;-78
2022/11/10 12:44:13;;;;;;;4.15;1.30;;;;;;;15.71;68.27;101360.12;1666033;85;21090;-79
2022/11/10 12:47:02;;;;;;;6.05;1.22;;;;;;;15.93;68.40;101367.09;1639746;86;21146;-78
2022/11/10 12:49:59;;;;;;;6.42;1.40;;;;;;;16.05;68.30;101371.85;1648631;86;21169;-79
2022/11/10 12:53:01;;;;;;;5.33;1.40;;;;;;;16.09;67.52;101369.92;1662022;86;21043;-78
2022/11/10 12:56:01;;;;;;;4.70;1.17;;;;;;;16.17;67.92;101374.41;1665742;85;21043;-78
2022/11/10 12:58:46;;;;;;;5.35;1.45;;;;;;;16.02;67.35;101378.13;1665919;85;22276;-78
2022/11/10 13:01:31;;;;;;;3.98;1.40;;;;;;;16.07;67.54;101385.84;1665470;85;21326;-79
2022/11/10 13:04:18;;;;;;;3.98;1.17;;;;;;;16.18;67.27;101380.93;1665805;85;21047;-78
2022/11/10 13:07:05;;;;;;;4.58;1.10;;;;;;;16.31;67.67;101383.90;1665798;86;21103;-78
2022/11/10 13:09:51;;;;;;;4.33;1.32;;;;;;;16.51;67.62;101381.19;1665535;86;21595;-78
2022/11/10 13:12:38;;;;;;;4.33;1.05;;;;;;;16.69;67.47;101390.55;1665736;85;21059;-79
2022/11/10 13:15:43;;;;;;;3.00;1.27;;;;;;;16.83;67.24;101393.44;1624601;86;21172;-78
2022/11/10 13:18:37;;;;;;;4.45;1.50;;;;;;;17.02;67.20;101397.39;1664557;86;21055;-79
2022/11/10 13:21:54;;;;;;;3.37;0.93;;;;;;;17.07;66.76;101395.38;1665518;85;21058;-79